KAST/AST METAR and TAF weather

Enter ICAO airport designator
Station Type Date Time Source
KAST METAR 2022/01/29 00:55 UTC NOAA

KAST 290055Z AUTO 31003KT 10SM CLR 07/01 A3025 RMK AO2 SLP244 T00720011


Station Type Date Time Source
KAST Decoded METAR 2022/01/29 00:55 UTC NOAA

PORT OF ASTORIA AIRPORT, OR, United States (KAST) 46-09N 123-53W 3M
Jan 28, 2022 - 07:55 PM EST / 2022.01.29 0055 UTC
Wind: from the NW (310 degrees) at 3 MPH (3 KT):0
Visibility: 10 mile(s):0
Sky conditions: clear
Temperature: 45.0 F (7.2 C)
Dew Point: 34.0 F (1.1 C)
Relative Humidity: 65%
Pressure (altimeter): 30.25 in. Hg (1024 hPa)
ob: KAST 290055Z AUTO 31003KT 10SM CLR 07/01 A3025 RMK AO2 SLP244 T00720011
cycle: 1

Station Type Date Time Source
KAST TAF 2022/01/28 18:39 UTC NOAA

TAF KAST 281736Z 2818/2918 07004KT P6SM SKC
FM290400 12004KT P6SM FEW004
FM291000 15002KT P6SM OVC004

Example: see airport list